createdAt,value
2022-09-07T00:01:00.422Z,2.40
2022-09-07T00:03:28.519Z,2.23
2022-09-07T00:05:56.804Z,2.50
2022-09-07T00:08:27.211Z,2.50
2022-09-07T00:10:58.011Z,2.10
2022-09-07T00:13:28.728Z,2.00
2022-09-07T00:15:58.242Z,2.40
2022-09-07T00:18:27.029Z,2.30
2022-09-07T00:21:02.560Z,2.13
2022-09-07T00:23:32.138Z,2.60
2022-09-07T00:26:01.599Z,2.10
2022-09-07T00:28:30.265Z,2.40
2022-09-07T00:30:59.780Z,1.80
2022-09-07T00:33:28.480Z,2.30
2022-09-07T00:35:58.558Z,2.40
2022-09-07T00:38:26.652Z,1.97
2022-09-07T00:40:54.682Z,2.13
2022-09-07T00:43:32.286Z,2.77
2022-09-07T00:46:01.954Z,2.27
2022-09-07T00:48:34.729Z,2.10
2022-09-07T00:51:06.199Z,1.90
2022-09-07T00:53:38.182Z,2.63
2022-09-07T00:56:07.451Z,2.00
2022-09-07T00:58:38.056Z,2.50
2022-09-07T01:01:09.695Z,2.30
2022-09-07T01:03:42.592Z,2.00
2022-09-07T01:06:16.236Z,2.00
2022-09-07T01:08:44.873Z,1.57
2022-09-07T01:11:13.270Z,2.43
2022-09-07T01:13:43.399Z,2.20
2022-09-07T01:16:19.262Z,2.60
2022-09-07T01:19:07.064Z,2.87
2022-09-07T01:21:50.357Z,1.93
2022-09-07T01:24:39.927Z,2.30
2022-09-07T01:27:58.298Z,2.37
2022-09-07T01:30:26.828Z,2.20
2022-09-07T01:33:10.508Z,2.27
2022-09-07T01:35:44.749Z,2.90
2022-09-07T01:38:18.706Z,1.90
2022-09-07T01:40:53.200Z,1.93
2022-09-07T01:43:33.013Z,2.20
2022-09-07T01:46:05.377Z,2.23
2022-09-07T01:48:35.789Z,2.30
2022-09-07T01:51:05.199Z,1.93
2022-09-07T01:53:37.377Z,2.17
2022-09-07T01:56:10.000Z,2.30
2022-09-07T01:58:44.223Z,2.60
2022-09-07T02:01:15.476Z,2.70
2022-09-07T02:03:47.233Z,1.83
2022-09-07T02:06:21.399Z,2.20
2022-09-07T02:08:56.893Z,2.80
2022-09-07T02:11:30.320Z,3.10
2022-09-07T02:14:03.445Z,2.70
2022-09-07T02:16:33.463Z,2.07
2022-09-07T02:19:05.232Z,2.40
2022-09-07T02:21:37.383Z,2.47
2022-09-07T02:24:10.188Z,2.03
2022-09-07T02:26:40.811Z,2.40
2022-09-07T02:29:10.387Z,2.50
2022-09-07T02:31:38.499Z,2.63
2022-09-07T02:34:06.880Z,2.77
2022-09-07T02:36:39.449Z,2.60
2022-09-07T02:39:07.485Z,2.63
2022-09-07T02:41:39.210Z,2.57
2022-09-07T02:44:12.222Z,2.60
2022-09-07T02:47:04.590Z,2.50
2022-09-07T02:49:52.195Z,2.60
2022-09-07T02:52:29.560Z,3.30
2022-09-07T02:55:10.910Z,2.80
2022-09-07T02:57:47.684Z,3.00
2022-09-07T03:00:20.902Z,3.67
2022-09-07T03:02:58.006Z,3.10
2022-09-07T03:05:34.337Z,2.50
2022-09-07T03:08:05.310Z,2.50
2022-09-07T03:10:34.128Z,3.10
2022-09-07T03:13:02.116Z,3.20
2022-09-07T03:15:31.874Z,3.20
2022-09-07T03:18:00.177Z,2.70
2022-09-07T03:20:28.211Z,2.87
2022-09-07T03:22:56.172Z,2.47
2022-09-07T03:25:24.208Z,2.77
2022-09-07T03:27:52.317Z,3.30
2022-09-07T03:30:20.560Z,3.00
2022-09-07T03:32:49.850Z,3.13
2022-09-07T03:35:18.318Z,3.07
2022-09-07T03:37:46.470Z,3.00
2022-09-07T03:40:16.196Z,3.30
2022-09-07T03:42:44.500Z,3.00
2022-09-07T03:45:12.772Z,3.30
2022-09-07T03:47:41.096Z,3.50
2022-09-07T03:50:11.036Z,2.73
2022-09-07T03:52:39.602Z,3.10
2022-09-07T03:55:08.379Z,3.10
2022-09-07T03:57:36.406Z,3.90
2022-09-07T04:00:06.257Z,3.40
2022-09-07T04:02:34.233Z,3.27
2022-09-07T04:05:02.199Z,3.10
2022-09-07T04:07:31.519Z,4.10
2022-09-07T04:09:59.506Z,2.77
2022-09-07T04:12:27.467Z,3.40
2022-09-07T04:14:55.725Z,3.93
2022-09-07T04:17:23.665Z,3.50
2022-09-07T04:19:52.309Z,3.83
2022-09-07T04:22:20.275Z,3.40
2022-09-07T04:24:50.183Z,3.37
2022-09-07T04:27:18.152Z,3.60
2022-09-07T04:29:46.187Z,3.40
2022-09-07T04:32:15.938Z,3.83
2022-09-07T04:34:44.150Z,3.30
2022-09-07T04:37:12.530Z,3.57
2022-09-07T04:39:40.564Z,3.70
2022-09-07T04:42:09.964Z,3.40
2022-09-07T04:44:37.991Z,4.37
2022-09-07T04:47:06.211Z,3.30
2022-09-07T04:49:34.232Z,3.83
2022-09-07T04:52:02.258Z,4.00
2022-09-07T04:54:30.564Z,3.33
2022-09-07T04:56:58.502Z,3.70
2022-09-07T04:59:27.875Z,3.30
2022-09-07T05:01:55.884Z,3.50
2022-09-07T05:04:23.920Z,3.80
2022-09-07T05:06:53.651Z,4.20
2022-09-07T05:09:21.639Z,4.03
2022-09-07T05:11:49.684Z,3.77
2022-09-07T05:14:18.063Z,3.90
2022-09-07T05:16:47.475Z,3.47
2022-09-07T05:19:16.058Z,4.20
2022-09-07T05:21:44.086Z,3.80
2022-09-07T05:24:12.062Z,3.70
2022-09-07T05:26:40.234Z,3.57
2022-09-07T05:31:58.572Z,4.20
2022-09-07T05:37:00.013Z,3.57
2022-09-07T05:39:28.549Z,3.80
2022-09-07T05:41:57.182Z,4.03
2022-09-07T05:47:15.829Z,3.10
2022-09-07T05:49:44.293Z,3.80
2022-09-07T05:52:12.260Z,4.57
2022-09-07T05:54:40.299Z,3.27
2022-09-07T05:57:08.732Z,3.10
2022-09-07T05:59:36.784Z,3.60
2022-09-07T06:02:05.268Z,3.23
2022-09-07T06:04:34.738Z,3.47
2022-09-07T06:07:21.110Z,3.60
2022-09-07T06:12:38.156Z,2.90
2022-09-07T06:15:07.010Z,3.10
2022-09-07T06:17:35.345Z,3.50
2022-09-07T06:20:05.631Z,3.20
2022-09-07T06:22:35.822Z,2.63
2022-09-07T06:25:04.006Z,3.30
2022-09-07T06:27:32.025Z,3.20
2022-09-07T06:29:59.975Z,3.03
2022-09-07T06:32:43.564Z,2.33
2022-09-07T06:35:14.552Z,3.27
2022-09-07T06:37:42.649Z,3.37
2022-09-07T06:40:12.019Z,3.07
2022-09-07T06:42:40.173Z,2.80
2022-09-07T06:45:10.964Z,3.40
2022-09-07T06:47:39.026Z,3.00
2022-09-07T06:50:07.791Z,2.97
2022-09-07T06:55:27.598Z,3.33
2022-09-07T06:57:55.667Z,4.10
2022-09-07T07:00:23.830Z,2.93
2022-09-07T07:02:51.982Z,3.10
2022-09-07T07:05:20.047Z,3.33
2022-09-07T07:07:49.373Z,3.13
2022-09-07T07:10:22.125Z,2.83
2022-09-07T07:12:56.679Z,2.50
2022-09-07T07:15:28.003Z,2.63
2022-09-07T07:17:59.181Z,2.50
2022-09-07T07:20:33.377Z,2.90
2022-09-07T07:23:02.713Z,2.43
2022-09-07T07:25:30.809Z,2.90
2022-09-07T07:30:46.858Z,2.80
2022-09-07T07:33:14.870Z,2.37
2022-09-07T07:35:42.873Z,2.73
2022-09-07T07:43:48.394Z,2.93
2022-09-07T07:46:17.365Z,2.10
2022-09-07T07:48:49.255Z,2.43
2022-09-07T07:51:17.222Z,2.50
2022-09-07T07:53:46.917Z,2.80
2022-09-07T07:56:15.145Z,2.20
2022-09-07T07:58:46.692Z,2.67
2022-09-07T08:01:16.615Z,2.70
2022-09-07T08:03:46.809Z,2.80
2022-09-07T08:06:17.314Z,1.90
2022-09-07T08:08:46.899Z,2.23
2022-09-07T08:11:17.160Z,2.77
2022-09-07T08:13:46.347Z,2.73
2022-09-07T08:16:15.277Z,3.13
2022-09-07T08:18:46.982Z,3.87
2022-09-07T08:21:16.841Z,2.43
2022-09-07T08:23:46.159Z,1.83
2022-09-07T08:26:14.164Z,2.57
2022-09-07T08:28:43.886Z,2.87
2022-09-07T08:31:14.009Z,2.50
2022-09-07T08:33:42.615Z,3.77
2022-09-07T08:36:13.392Z,2.50
2022-09-07T08:38:41.844Z,2.97
2022-09-07T08:41:41.595Z,2.70
2022-09-07T08:44:13.912Z,2.40
2022-09-07T08:46:46.345Z,3.27
2022-09-07T08:49:18.789Z,2.80
2022-09-07T08:51:50.705Z,2.93
2022-09-07T08:54:18.981Z,2.23
2022-09-07T08:59:46.854Z,2.73
2022-09-07T09:02:38.345Z,2.07
2022-09-07T09:05:16.979Z,2.87
2022-09-07T09:07:56.183Z,3.33
2022-09-07T09:10:34.416Z,2.67
2022-09-07T09:13:12.167Z,2.20
2022-09-07T09:15:52.934Z,2.70
2022-09-07T09:18:32.572Z,2.50
2022-09-07T09:21:01.463Z,2.80
2022-09-07T09:23:38.198Z,2.13
2022-09-07T09:26:11.908Z,2.73
2022-09-07T09:28:41.498Z,3.70
2022-09-07T09:31:18.477Z,2.97
2022-09-07T09:34:11.115Z,2.73
2022-09-07T09:36:44.799Z,2.53
2022-09-07T09:39:30.512Z,2.77
2022-09-07T09:42:01.378Z,2.43
2022-09-07T09:44:35.086Z,2.63
2022-09-07T09:49:53.552Z,2.57
2022-09-07T09:52:32.792Z,2.63
2022-09-07T09:55:32.665Z,3.27
2022-09-07T10:04:01.496Z,2.47
2022-09-07T10:06:33.104Z,2.67
2022-09-07T10:09:02.817Z,2.47
2022-09-07T10:14:36.277Z,3.23
2022-09-07T10:17:15.042Z,2.97
2022-09-07T10:19:44.585Z,3.23
2022-09-07T10:22:26.089Z,3.03
2022-09-07T10:24:54.044Z,2.47
2022-09-07T10:27:31.058Z,3.10
2022-09-07T10:29:59.457Z,2.63
2022-09-07T10:32:48.595Z,2.60
2022-09-07T10:35:22.275Z,2.70
2022-09-07T10:38:03.979Z,3.80
2022-09-07T10:40:35.604Z,3.43
2022-09-07T10:43:22.782Z,3.30
2022-09-07T10:46:08.821Z,2.43
2022-09-07T10:48:46.108Z,3.67
2022-09-07T10:51:19.059Z,4.20
2022-09-07T10:56:53.128Z,2.97
2022-09-07T11:02:33.441Z,3.47
2022-09-07T11:05:14.449Z,3.43
2022-09-07T11:08:00.412Z,3.10
2022-09-07T11:10:38.585Z,3.17
2022-09-07T11:13:09.215Z,3.40
2022-09-07T11:15:43.857Z,3.60
2022-09-07T11:18:17.205Z,2.50
2022-09-07T11:20:54.898Z,2.87
2022-09-07T11:23:29.355Z,2.50
2022-09-07T11:26:05.026Z,2.90
2022-09-07T11:28:44.734Z,2.70
2022-09-07T11:31:20.985Z,3.27
2022-09-07T11:36:51.836Z,2.97
2022-09-07T11:39:26.194Z,2.90
2022-09-07T11:42:01.398Z,2.53
2022-09-07T11:44:40.833Z,3.43
2022-09-07T11:47:13.714Z,3.07
2022-09-07T11:49:41.638Z,2.33
2022-09-07T11:52:19.105Z,2.33
2022-09-07T11:54:52.822Z,2.03
2022-09-07T11:57:45.893Z,2.67
2022-09-07T12:00:19.118Z,2.23
2022-09-07T12:03:15.240Z,2.17
2022-09-07T12:06:11.193Z,1.90
2022-09-07T12:09:06.972Z,2.87
2022-09-07T12:12:08.112Z,2.63
2022-09-07T12:14:45.729Z,2.27
2022-09-07T12:17:25.879Z,2.33
2022-09-07T12:20:14.281Z,2.10
2022-09-07T12:23:03.671Z,2.93
2022-09-07T12:25:35.402Z,2.03
2022-09-07T12:28:03.624Z,2.27
2022-09-07T12:30:57.016Z,2.40
2022-09-07T12:33:31.576Z,2.57
2022-09-07T12:36:00.967Z,3.10
2022-09-07T12:39:20.721Z,2.80
2022-09-07T12:44:40.790Z,3.00
2022-09-07T12:47:29.105Z,2.10
2022-09-07T12:50:10.763Z,2.00
2022-09-07T12:53:22.634Z,2.00
2022-09-07T12:56:20.503Z,2.00
2022-09-07T12:59:01.612Z,2.40
2022-09-07T13:01:44.164Z,2.10
2022-09-07T13:04:23.915Z,1.83
2022-09-07T13:07:06.862Z,1.60
2022-09-07T13:09:36.165Z,2.03
2022-09-07T13:15:40.743Z,2.33
2022-09-07T13:18:12.591Z,2.47
2022-09-07T13:20:41.647Z,2.50
2022-09-07T13:23:25.560Z,2.10
2022-09-07T13:26:01.616Z,2.17
2022-09-07T13:28:37.959Z,2.23
2022-09-07T13:31:38.769Z,2.30
2022-09-07T13:34:37.458Z,1.90
2022-09-07T13:37:07.393Z,2.03
2022-09-07T13:39:41.781Z,2.50
2022-09-07T13:42:17.233Z,2.20
2022-09-07T13:44:54.079Z,1.90
2022-09-07T13:47:32.425Z,2.10
2022-09-07T13:50:16.708Z,1.63
2022-09-07T13:53:13.221Z,2.10
2022-09-07T13:55:52.153Z,2.10
2022-09-07T13:58:22.280Z,1.83
2022-09-07T14:00:54.607Z,2.23
2022-09-07T14:03:24.919Z,1.60
2022-09-07T14:06:15.698Z,1.90
2022-09-07T14:08:48.575Z,2.10
2022-09-07T14:11:20.810Z,2.17
2022-09-07T14:14:14.093Z,2.10
2022-09-07T14:16:45.514Z,2.50
2022-09-07T14:19:19.226Z,1.90
2022-09-07T14:21:57.154Z,1.83
2022-09-07T14:24:31.116Z,1.87
2022-09-07T14:27:00.110Z,1.97
2022-09-07T14:29:33.708Z,2.33
2022-09-07T14:32:03.537Z,1.90
2022-09-07T14:34:34.853Z,1.87
2022-09-07T14:37:08.636Z,2.20
2022-09-07T14:39:41.762Z,1.90
2022-09-07T14:42:13.080Z,2.10
2022-09-07T14:44:43.306Z,2.00
2022-09-07T14:47:24.394Z,2.00
2022-09-07T14:49:53.155Z,2.00
2022-09-07T14:52:27.294Z,1.70
2022-09-07T14:54:55.315Z,2.70
2022-09-07T14:57:30.292Z,2.07
2022-09-07T14:59:58.889Z,1.83
2022-09-07T15:02:34.635Z,2.07
2022-09-07T15:05:27.229Z,1.90
2022-09-07T15:07:59.336Z,2.40
2022-09-07T15:10:35.250Z,2.30
2022-09-07T15:13:06.160Z,1.90
2022-09-07T15:15:37.322Z,2.20
2022-09-07T15:18:09.102Z,2.27
2022-09-07T15:20:43.235Z,2.20
2022-09-07T15:23:14.724Z,2.70
2022-09-07T15:25:48.155Z,2.17
2022-09-07T15:34:02.597Z,1.90
2022-09-07T15:36:32.007Z,2.27
2022-09-07T15:39:03.027Z,2.13
2022-09-07T15:41:31.405Z,2.23
2022-09-07T15:44:00.084Z,2.30
2022-09-07T15:46:28.510Z,1.93
2022-09-07T15:48:57.216Z,2.20
2022-09-07T15:54:16.468Z,2.00
2022-09-07T15:57:48.358Z,2.47
2022-09-07T15:59:32.881Z,2.10
2022-09-07T16:02:01.066Z,2.13
2022-09-07T16:04:30.168Z,3.10
2022-09-07T16:07:01.718Z,2.10
2022-09-07T16:09:31.089Z,2.40
2022-09-07T16:13:00.112Z,2.10
2022-09-07T16:14:46.990Z,2.57
2022-09-07T16:20:03.330Z,2.40
2022-09-07T16:25:21.593Z,2.13
2022-09-07T16:27:50.044Z,2.10
2022-09-07T16:30:18.284Z,2.33
2022-09-07T16:32:46.355Z,2.00
2022-09-07T16:35:14.570Z,2.10
2022-09-07T16:40:31.997Z,2.57
2022-09-07T16:43:02.177Z,2.07
2022-09-07T16:48:18.069Z,1.93
2022-09-07T16:51:00.573Z,2.07
2022-09-07T16:53:29.955Z,2.10
2022-09-07T16:56:03.204Z,2.17
2022-09-07T16:58:35.787Z,2.00
2022-09-07T17:01:04.877Z,2.40
2022-09-07T17:03:33.015Z,2.40
2022-09-07T17:06:01.943Z,2.33
2022-09-07T17:08:30.255Z,2.43
2022-09-07T17:11:00.668Z,2.10
2022-09-07T17:13:31.820Z,3.20
2022-09-07T17:16:03.488Z,2.80
2022-09-07T17:21:20.194Z,2.77
2022-09-07T17:23:54.707Z,2.10
2022-09-07T17:26:26.831Z,2.53
2022-09-07T17:29:00.178Z,2.33
2022-09-07T17:34:18.649Z,2.10
2022-09-07T17:36:46.686Z,2.00
2022-09-07T17:39:17.097Z,2.50
2022-09-07T17:41:46.313Z,2.13
2022-09-07T17:44:16.068Z,3.23
2022-09-07T17:46:44.500Z,2.13
2022-09-07T17:49:14.348Z,2.73
2022-09-07T17:51:42.337Z,2.40
2022-09-07T17:54:13.746Z,2.63
2022-09-07T17:56:42.639Z,2.83
2022-09-07T18:02:00.994Z,2.77
2022-09-07T18:04:29.353Z,2.83
2022-09-07T18:06:57.621Z,2.50
2022-09-07T18:09:25.567Z,2.27
2022-09-07T18:11:53.549Z,3.20
2022-09-07T18:14:21.568Z,2.20
2022-09-07T18:16:51.055Z,2.70
2022-09-07T18:19:20.788Z,2.83
2022-09-07T18:21:50.641Z,2.57
2022-09-07T18:24:22.195Z,2.10
2022-09-07T18:26:52.793Z,3.40
2022-09-07T18:29:37.652Z,2.57
2022-09-07T18:32:09.835Z,3.13
2022-09-07T18:34:41.311Z,2.63
2022-09-07T18:37:11.943Z,2.50
2022-09-07T18:39:40.844Z,2.50
2022-09-07T18:42:09.887Z,2.57
2022-09-07T18:47:28.715Z,3.17
2022-09-07T18:49:58.989Z,2.60
2022-09-07T18:55:16.118Z,2.67
2022-09-07T18:57:45.073Z,2.67
2022-09-07T19:00:17.793Z,1.83
2022-09-07T19:02:49.831Z,2.70
2022-09-07T19:08:08.516Z,2.53
2022-09-07T19:10:37.843Z,2.20
2022-09-07T19:13:05.840Z,3.23
2022-09-07T19:15:38.029Z,1.90
2022-09-07T19:18:07.920Z,2.13
2022-09-07T19:20:37.746Z,2.93
2022-09-07T19:23:06.434Z,1.60
2022-09-07T19:25:34.373Z,1.67
2022-09-07T19:28:02.417Z,2.60
2022-09-07T19:30:30.431Z,1.70
2022-09-07T19:33:02.131Z,2.47
2022-09-07T19:35:37.640Z,2.10
2022-09-07T19:38:05.864Z,1.90
2022-09-07T19:40:34.030Z,1.80
2022-09-07T19:43:02.042Z,2.17
2022-09-07T19:45:30.144Z,1.80
2022-09-07T19:47:58.246Z,1.97
2022-09-07T19:50:26.293Z,2.33
2022-09-07T19:52:55.708Z,2.13
2022-09-07T19:55:23.650Z,2.30
2022-09-07T19:57:52.407Z,1.90
2022-09-07T20:00:20.422Z,2.73
2022-09-07T20:02:49.908Z,2.07
2022-09-07T20:05:18.196Z,2.20
2022-09-07T20:07:46.168Z,2.03
2022-09-07T20:10:15.554Z,2.00
2022-09-07T20:12:43.541Z,2.10
2022-09-07T20:15:11.711Z,2.30
2022-09-07T20:17:39.719Z,4.33
2022-09-07T20:20:08.775Z,3.50
2022-09-07T20:22:36.712Z,2.60
2022-09-07T20:25:05.111Z,2.27
2022-09-07T20:27:35.812Z,4.30
2022-09-07T20:30:04.075Z,3.77
2022-09-07T20:32:32.101Z,2.27
2022-09-07T20:35:01.416Z,2.27
2022-09-07T20:37:29.535Z,2.10
2022-09-07T20:39:57.521Z,2.63
2022-09-07T20:42:25.527Z,2.50
2022-09-07T20:44:54.896Z,2.53
2022-09-07T20:47:23.923Z,2.63
2022-09-07T20:49:52.486Z,2.50
2022-09-07T20:52:20.596Z,2.10
2022-09-07T20:54:48.680Z,2.57
2022-09-07T20:57:16.655Z,2.33
2022-09-07T20:59:44.609Z,2.30
2022-09-07T21:02:14.006Z,3.03
2022-09-07T21:04:45.051Z,1.97
2022-09-07T21:07:13.061Z,2.23
2022-09-07T21:09:41.039Z,2.50
2022-09-07T21:12:09.291Z,2.37
2022-09-07T21:14:37.373Z,2.00
2022-09-07T21:17:05.675Z,2.23
2022-09-07T21:19:36.817Z,2.50
2022-09-07T21:22:04.834Z,2.50
2022-09-07T21:24:32.911Z,2.90
2022-09-07T21:27:01.011Z,2.67
2022-09-07T21:29:28.983Z,2.60
2022-09-07T21:31:57.257Z,2.10
2022-09-07T21:34:25.383Z,2.90
2022-09-07T21:36:54.792Z,2.47
2022-09-07T21:39:23.082Z,2.40
2022-09-07T21:41:52.278Z,2.70
2022-09-07T21:44:20.620Z,2.77
2022-09-07T21:46:48.686Z,2.60
2022-09-07T21:49:16.675Z,3.00
2022-09-07T21:51:44.709Z,2.70
2022-09-07T21:54:14.055Z,2.37
2022-09-07T21:56:46.514Z,3.07
2022-09-07T21:59:15.129Z,2.90
2022-09-07T22:01:43.182Z,2.83
2022-09-07T22:04:13.779Z,2.60
2022-09-07T22:06:45.248Z,2.93
2022-09-07T22:09:14.704Z,3.10
2022-09-07T22:11:45.873Z,2.60
2022-09-07T22:14:15.752Z,2.50
2022-09-07T22:16:43.891Z,2.47
2022-09-07T22:19:11.866Z,2.80
2022-09-07T22:21:39.857Z,3.13
2022-09-07T22:24:08.383Z,5.13
2022-09-07T22:26:38.657Z,2.90
2022-09-07T22:29:07.873Z,2.80
2022-09-07T22:31:38.794Z,2.70
2022-09-07T22:34:08.997Z,2.53
2022-09-07T22:36:38.730Z,2.83
2022-09-07T22:39:09.816Z,2.30
2022-09-07T22:41:41.653Z,3.30
2022-09-07T22:44:13.065Z,2.97
2022-09-07T22:46:43.479Z,2.70
2022-09-07T22:49:12.907Z,2.97
2022-09-07T22:51:40.973Z,2.80
2022-09-07T22:54:09.557Z,2.40
2022-09-07T22:56:38.322Z,3.13
2022-09-07T22:59:10.244Z,2.50
2022-09-07T23:01:38.403Z,2.73
2022-09-07T23:04:07.141Z,3.07
2022-09-07T23:06:38.470Z,3.40
2022-09-07T23:09:08.907Z,2.97
2022-09-07T23:11:37.002Z,2.57
2022-09-07T23:14:09.493Z,2.53
2022-09-07T23:16:37.594Z,3.70
2022-09-07T23:19:05.630Z,2.83
2022-09-07T23:21:34.046Z,2.60
2022-09-07T23:24:02.559Z,3.60
2022-09-07T23:26:31.896Z,3.50
2022-09-07T23:29:02.022Z,3.57
2022-09-07T23:31:36.874Z,3.87
2022-09-07T23:34:05.446Z,3.87
2022-09-07T23:36:33.924Z,3.57
2022-09-07T23:39:02.088Z,3.50
2022-09-07T23:41:30.298Z,2.97
2022-09-07T23:44:00.433Z,4.40
2022-09-07T23:46:28.475Z,3.87
2022-09-07T23:48:57.782Z,3.43
2022-09-07T23:51:25.739Z,3.70
2022-09-07T23:53:54.184Z,3.63
2022-09-07T23:56:24.319Z,4.30
2022-09-07T23:58:52.737Z,4.30
